sensor_id;sensor_type;location;lat;lon;timestamp;P1;durP1;ratioP1;P2;durP2;ratioP2
14768;SDS011;7476;49.404;11.152;2022-07-22T00:01:51;9.10;;;8.07;;
14768;SDS011;7476;49.404;11.152;2022-07-22T00:04:18;8.57;;;7.77;;
14768;SDS011;7476;49.404;11.152;2022-07-22T00:06:44;9.60;;;8.47;;
14768;SDS011;7476;49.404;11.152;2022-07-22T00:09:11;8.83;;;7.87;;
14768;SDS011;7476;49.404;11.152;2022-07-22T00:11:38;9.40;;;8.40;;
14768;SDS011;7476;49.404;11.152;2022-07-22T00:14:05;9.53;;;8.03;;
14768;SDS011;7476;49.404;11.152;2022-07-22T00:16:33;9.23;;;8.33;;
14768;SDS011;7476;49.404;11.152;2022-07-22T00:18:59;9.47;;;8.47;;
14768;SDS011;7476;49.404;11.152;2022-07-22T00:21:26;9.50;;;8.60;;
14768;SDS011;7476;49.404;11.152;2022-07-22T00:23:53;8.73;;;7.93;;
14768;SDS011;7476;49.404;11.152;2022-07-22T00:26:19;10.23;;;8.47;;
14768;SDS011;7476;49.404;11.152;2022-07-22T00:28:46;9.37;;;8.43;;
14768;SDS011;7476;49.404;11.152;2022-07-22T00:31:13;9.17;;;8.27;;
14768;SDS011;7476;49.404;11.152;2022-07-22T00:33:41;10.33;;;8.70;;
14768;SDS011;7476;49.404;11.152;2022-07-22T00:36:08;10.17;;;9.17;;
14768;SDS011;7476;49.404;11.152;2022-07-22T00:38:34;9.80;;;8.90;;
14768;SDS011;7476;49.404;11.152;2022-07-22T00:41:01;9.70;;;8.73;;
14768;SDS011;7476;49.404;11.152;2022-07-22T00:43:28;8.90;;;7.90;;
14768;SDS011;7476;49.404;11.152;2022-07-22T00:46:14;9.53;;;8.53;;
14768;SDS011;7476;49.404;11.152;2022-07-22T00:48:43;9.77;;;8.77;;
14768;SDS011;7476;49.404;11.152;2022-07-22T00:51:10;9.57;;;8.60;;
14768;SDS011;7476;49.404;11.152;2022-07-22T00:53:36;9.90;;;8.90;;
14768;SDS011;7476;49.404;11.152;2022-07-22T00:56:03;9.33;;;8.23;;
14768;SDS011;7476;49.404;11.152;2022-07-22T00:58:31;10.87;;;9.77;;
14768;SDS011;7476;49.404;11.152;2022-07-22T01:00:57;10.00;;;8.67;;
14768;SDS011;7476;49.404;11.152;2022-07-22T01:03:24;9.73;;;8.83;;
14768;SDS011;7476;49.404;11.152;2022-07-22T01:05:52;10.53;;;9.00;;
14768;SDS011;7476;49.404;11.152;2022-07-22T01:08:19;10.53;;;8.80;;
14768;SDS011;7476;49.404;11.152;2022-07-22T01:10:46;10.27;;;8.93;;
14768;SDS011;7476;49.404;11.152;2022-07-22T01:13:12;9.93;;;9.00;;
14768;SDS011;7476;49.404;11.152;2022-07-22T01:15:39;9.97;;;8.97;;
14768;SDS011;7476;49.404;11.152;2022-07-22T01:18:06;10.83;;;9.13;;
14768;SDS011;7476;49.404;11.152;2022-07-22T01:20:35;10.20;;;9.20;;
14768;SDS011;7476;49.404;11.152;2022-07-22T01:23:02;10.33;;;9.20;;
14768;SDS011;7476;49.404;11.152;2022-07-22T01:25:29;9.70;;;8.73;;
14768;SDS011;7476;49.404;11.152;2022-07-22T01:27:55;9.60;;;8.70;;
14768;SDS011;7476;49.404;11.152;2022-07-22T01:30:22;9.47;;;8.57;;
14768;SDS011;7476;49.404;11.152;2022-07-22T01:32:48;10.13;;;9.23;;
14768;SDS011;7476;49.404;11.152;2022-07-22T01:35:15;9.53;;;8.53;;
14768;SDS011;7476;49.404;11.152;2022-07-22T01:37:43;10.53;;;9.47;;
14768;SDS011;7476;49.404;11.152;2022-07-22T01:40:10;10.53;;;8.70;;
14768;SDS011;7476;49.404;11.152;2022-07-22T01:42:37;10.20;;;9.10;;
14768;SDS011;7476;49.404;11.152;2022-07-22T01:45:05;10.67;;;9.57;;
14768;SDS011;7476;49.404;11.152;2022-07-22T01:47:32;10.53;;;9.60;;
14768;SDS011;7476;49.404;11.152;2022-07-22T01:49:59;10.93;;;9.70;;
14768;SDS011;7476;49.404;11.152;2022-07-22T01:52:25;10.13;;;9.13;;
14768;SDS011;7476;49.404;11.152;2022-07-22T01:54:53;10.40;;;9.30;;
14768;SDS011;7476;49.404;11.152;2022-07-22T01:57:20;12.23;;;9.77;;
14768;SDS011;7476;49.404;11.152;2022-07-22T01:59:47;11.10;;;10.07;;
14768;SDS011;7476;49.404;11.152;2022-07-22T02:02:13;12.33;;;10.40;;
14768;SDS011;7476;49.404;11.152;2022-07-22T02:04:40;11.20;;;10.10;;
14768;SDS011;7476;49.404;11.152;2022-07-22T02:07:07;10.50;;;9.37;;
14768;SDS011;7476;49.404;11.152;2022-07-22T02:09:34;9.93;;;8.93;;
14768;SDS011;7476;49.404;11.152;2022-07-22T02:12:02;9.90;;;9.00;;
14768;SDS011;7476;49.404;11.152;2022-07-22T02:14:28;11.17;;;10.07;;
14768;SDS011;7476;49.404;11.152;2022-07-22T02:16:55;10.87;;;9.67;;
14768;SDS011;7476;49.404;11.152;2022-07-22T02:19:22;11.17;;;10.00;;
14768;SDS011;7476;49.404;11.152;2022-07-22T02:21:48;11.20;;;10.07;;
14768;SDS011;7476;49.404;11.152;2022-07-22T02:24:15;11.63;;;10.47;;
14768;SDS011;7476;49.404;11.152;2022-07-22T02:26:42;11.07;;;10.03;;
14768;SDS011;7476;49.404;11.152;2022-07-22T02:29:10;11.13;;;10.13;;
14768;SDS011;7476;49.404;11.152;2022-07-22T02:31:37;11.43;;;10.33;;
14768;SDS011;7476;49.404;11.152;2022-07-22T02:34:03;10.73;;;9.73;;
14768;SDS011;7476;49.404;11.152;2022-07-22T02:36:30;11.90;;;10.23;;
14768;SDS011;7476;49.404;11.152;2022-07-22T02:38:57;11.27;;;10.17;;
14768;SDS011;7476;49.404;11.152;2022-07-22T02:41:24;11.17;;;9.57;;
14768;SDS011;7476;49.404;11.152;2022-07-22T02:43:50;11.23;;;10.23;;
14768;SDS011;7476;49.404;11.152;2022-07-22T02:46:20;11.83;;;10.03;;
14768;SDS011;7476;49.404;11.152;2022-07-22T02:48:46;11.07;;;9.97;;
14768;SDS011;7476;49.404;11.152;2022-07-22T02:51:13;12.03;;;10.47;;
14768;SDS011;7476;49.404;11.152;2022-07-22T02:53:40;10.73;;;9.73;;
14768;SDS011;7476;49.404;11.152;2022-07-22T02:56:06;10.83;;;9.77;;
14768;SDS011;7476;49.404;11.152;2022-07-22T02:58:33;11.83;;;10.73;;
14768;SDS011;7476;49.404;11.152;2022-07-22T03:01:00;11.63;;;10.37;;
14768;SDS011;7476;49.404;11.152;2022-07-22T03:03:28;11.97;;;10.77;;
14768;SDS011;7476;49.404;11.152;2022-07-22T03:05:55;12.40;;;10.17;;
14768;SDS011;7476;49.404;11.152;2022-07-22T03:08:22;11.53;;;10.33;;
14768;SDS011;7476;49.404;11.152;2022-07-22T03:10:50;11.13;;;10.03;;
14768;SDS011;7476;49.404;11.152;2022-07-22T03:13:17;11.30;;;10.10;;
14768;SDS011;7476;49.404;11.152;2022-07-22T03:15:44;10.63;;;9.63;;
14768;SDS011;7476;49.404;11.152;2022-07-22T03:18:10;11.43;;;10.23;;
14768;SDS011;7476;49.404;11.152;2022-07-22T03:20:38;10.97;;;9.97;;
14768;SDS011;7476;49.404;11.152;2022-07-22T03:23:05;11.13;;;10.10;;
14768;SDS011;7476;49.404;11.152;2022-07-22T03:25:32;11.20;;;10.10;;
14768;SDS011;7476;49.404;11.152;2022-07-22T03:27:59;11.67;;;10.57;;
14768;SDS011;7476;49.404;11.152;2022-07-22T03:30:25;11.87;;;10.67;;
14768;SDS011;7476;49.404;11.152;2022-07-22T03:32:52;12.30;;;11.00;;
14768;SDS011;7476;49.404;11.152;2022-07-22T03:35:19;11.40;;;10.30;;
14768;SDS011;7476;49.404;11.152;2022-07-22T03:37:47;11.73;;;10.53;;
14768;SDS011;7476;49.404;11.152;2022-07-22T03:40:14;12.33;;;10.10;;
14768;SDS011;7476;49.404;11.152;2022-07-22T03:42:41;11.90;;;10.70;;
14768;SDS011;7476;49.404;11.152;2022-07-22T03:45:08;11.50;;;10.30;;
14768;SDS011;7476;49.404;11.152;2022-07-22T03:47:35;11.13;;;9.97;;
14768;SDS011;7476;49.404;11.152;2022-07-22T03:50:02;12.10;;;10.90;;
14768;SDS011;7476;49.404;11.152;2022-07-22T03:52:29;11.23;;;10.13;;
14768;SDS011;7476;49.404;11.152;2022-07-22T03:54:57;11.93;;;10.73;;
14768;SDS011;7476;49.404;11.152;2022-07-22T03:57:24;11.20;;;10.10;;
14768;SDS011;7476;49.404;11.152;2022-07-22T03:59:53;11.43;;;10.33;;
14768;SDS011;7476;49.404;11.152;2022-07-22T04:02:19;11.80;;;10.60;;
14768;SDS011;7476;49.404;11.152;2022-07-22T04:04:46;11.90;;;10.70;;
14768;SDS011;7476;49.404;11.152;2022-07-22T04:07:13;12.60;;;11.23;;
14768;SDS011;7476;49.404;11.152;2022-07-22T04:09:39;12.00;;;10.77;;
14768;SDS011;7476;49.404;11.152;2022-07-22T04:12:08;12.87;;;11.30;;
14768;SDS011;7476;49.404;11.152;2022-07-22T04:14:34;12.97;;;11.77;;
14768;SDS011;7476;49.404;11.152;2022-07-22T04:17:01;11.50;;;10.37;;
14768;SDS011;7476;49.404;11.152;2022-07-22T04:19:28;12.50;;;11.20;;
14768;SDS011;7476;49.404;11.152;2022-07-22T04:21:54;11.90;;;10.67;;
14768;SDS011;7476;49.404;11.152;2022-07-22T04:24:21;12.47;;;11.10;;
14768;SDS011;7476;49.404;11.152;2022-07-22T04:26:48;14.20;;;12.70;;
14768;SDS011;7476;49.404;11.152;2022-07-22T04:29:16;13.20;;;11.90;;
14768;SDS011;7476;49.404;11.152;2022-07-22T04:31:43;11.80;;;10.53;;
14768;SDS011;7476;49.404;11.152;2022-07-22T04:34:09;10.97;;;9.87;;
14768;SDS011;7476;49.404;11.152;2022-07-22T04:36:36;10.83;;;9.73;;
14768;SDS011;7476;49.404;11.152;2022-07-22T04:39:03;10.70;;;9.63;;
14768;SDS011;7476;49.404;11.152;2022-07-22T04:41:30;9.53;;;8.73;;
14768;SDS011;7476;49.404;11.152;2022-07-22T04:43:57;8.90;;;8.20;;
14768;SDS011;7476;49.404;11.152;2022-07-22T04:46:25;9.30;;;8.40;;
14768;SDS011;7476;49.404;11.152;2022-07-22T04:48:52;8.70;;;7.90;;
14768;SDS011;7476;49.404;11.152;2022-07-22T04:51:19;8.70;;;7.90;;
14768;SDS011;7476;49.404;11.152;2022-07-22T04:53:45;8.90;;;8.10;;
14768;SDS011;7476;49.404;11.152;2022-07-22T04:56:12;8.37;;;7.67;;
14768;SDS011;7476;49.404;11.152;2022-07-22T04:58:39;8.23;;;7.33;;
14768;SDS011;7476;49.404;11.152;2022-07-22T05:01:05;8.27;;;7.50;;
14768;SDS011;7476;49.404;11.152;2022-07-22T05:03:33;8.87;;;7.97;;
14768;SDS011;7476;49.404;11.152;2022-07-22T05:06:03;9.03;;;7.43;;
14768;SDS011;7476;49.404;11.152;2022-07-22T05:08:30;8.60;;;7.77;;
14768;SDS011;7476;49.404;11.152;2022-07-22T05:10:56;7.77;;;7.07;;
14768;SDS011;7476;49.404;11.152;2022-07-22T05:13:23;8.37;;;7.57;;
14768;SDS011;7476;49.404;11.152;2022-07-22T05:15:50;9.33;;;8.53;;
14768;SDS011;7476;49.404;11.152;2022-07-22T05:18:17;9.80;;;8.87;;
14768;SDS011;7476;49.404;11.152;2022-07-22T05:20:45;10.13;;;7.90;;
14768;SDS011;7476;49.404;11.152;2022-07-22T05:23:11;8.70;;;7.90;;
14768;SDS011;7476;49.404;11.152;2022-07-22T05:25:38;10.33;;;9.33;;
14768;SDS011;7476;49.404;11.152;2022-07-22T05:28:05;10.40;;;9.40;;
14768;SDS011;7476;49.404;11.152;2022-07-22T05:30:32;10.50;;;9.00;;
14768;SDS011;7476;49.404;11.152;2022-07-22T05:32:58;10.10;;;9.20;;
14768;SDS011;7476;49.404;11.152;2022-07-22T05:35:25;10.23;;;8.80;;
14768;SDS011;7476;49.404;11.152;2022-07-22T05:37:53;11.90;;;9.10;;
14768;SDS011;7476;49.404;11.152;2022-07-22T05:40:21;9.93;;;8.93;;
14768;SDS011;7476;49.404;11.152;2022-07-22T05:42:48;10.20;;;9.20;;
14768;SDS011;7476;49.404;11.152;2022-07-22T05:45:14;10.80;;;9.70;;
14768;SDS011;7476;49.404;11.152;2022-07-22T05:47:41;10.37;;;9.37;;
14768;SDS011;7476;49.404;11.152;2022-07-22T05:50:08;9.20;;;8.30;;
14768;SDS011;7476;49.404;11.152;2022-07-22T05:52:35;9.63;;;8.67;;
14768;SDS011;7476;49.404;11.152;2022-07-22T05:55:03;8.93;;;8.13;;
14768;SDS011;7476;49.404;11.152;2022-07-22T05:57:30;9.60;;;8.60;;
14768;SDS011;7476;49.404;11.152;2022-07-22T05:59:57;10.33;;;8.27;;
14768;SDS011;7476;49.404;11.152;2022-07-22T06:02:24;8.90;;;8.00;;
14768;SDS011;7476;49.404;11.152;2022-07-22T06:04:51;8.27;;;7.47;;
14768;SDS011;7476;49.404;11.152;2022-07-22T06:07:18;8.40;;;7.70;;
14768;SDS011;7476;49.404;11.152;2022-07-22T06:09:44;9.37;;;7.30;;
14768;SDS011;7476;49.404;11.152;2022-07-22T06:12:12;8.50;;;7.37;;
14768;SDS011;7476;49.404;11.152;2022-07-22T06:14:39;8.43;;;7.60;;
14768;SDS011;7476;49.404;11.152;2022-07-22T06:17:06;8.00;;;7.30;;
14768;SDS011;7476;49.404;11.152;2022-07-22T06:19:32;8.13;;;7.33;;
14768;SDS011;7476;49.404;11.152;2022-07-22T06:21:59;8.40;;;7.60;;
14768;SDS011;7476;49.404;11.152;2022-07-22T06:24:26;7.70;;;6.80;;
14768;SDS011;7476;49.404;11.152;2022-07-22T06:26:52;9.10;;;8.20;;
14768;SDS011;7476;49.404;11.152;2022-07-22T06:29:20;7.97;;;7.03;;
14768;SDS011;7476;49.404;11.152;2022-07-22T06:31:47;9.03;;;8.20;;
14768;SDS011;7476;49.404;11.152;2022-07-22T06:34:14;7.93;;;7.07;;
14768;SDS011;7476;49.404;11.152;2022-07-22T06:36:41;8.00;;;7.20;;
14768;SDS011;7476;49.404;11.152;2022-07-22T06:39:08;8.03;;;7.10;;
14768;SDS011;7476;49.404;11.152;2022-07-22T06:41:34;7.40;;;6.70;;
14768;SDS011;7476;49.404;11.152;2022-07-22T06:44:01;8.17;;;7.47;;
14768;SDS011;7476;49.404;11.152;2022-07-22T06:46:29;8.77;;;7.88;;
14768;SDS011;7476;49.404;11.152;2022-07-22T06:48:56;9.45;;;7.50;;
14768;SDS011;7476;49.404;11.152;2022-07-22T06:51:22;8.60;;;7.57;;
14768;SDS011;7476;49.404;11.152;2022-07-22T06:53:49;7.32;;;6.60;;
14768;SDS011;7476;49.404;11.152;2022-07-22T06:56:16;8.50;;;7.53;;
14768;SDS011;7476;49.404;11.152;2022-07-22T06:58:42;9.68;;;7.15;;
14768;SDS011;7476;49.404;11.152;2022-07-22T07:01:09;8.07;;;7.38;;
14768;SDS011;7476;49.404;11.152;2022-07-22T07:03:38;8.60;;;7.43;;
14768;SDS011;7476;49.404;11.152;2022-07-22T07:06:06;7.22;;;6.60;;
14768;SDS011;7476;49.404;11.152;2022-07-22T07:08:36;7.70;;;7.07;;
14768;SDS011;7476;49.404;11.152;2022-07-22T07:11:02;8.55;;;7.35;;
14768;SDS011;7476;49.404;11.152;2022-07-22T07:13:29;6.80;;;6.10;;
14768;SDS011;7476;49.404;11.152;2022-07-22T07:15:56;8.30;;;6.25;;
14768;SDS011;7476;49.404;11.152;2022-07-22T07:18:23;7.90;;;7.10;;
14768;SDS011;7476;49.404;11.152;2022-07-22T07:20:51;7.20;;;6.60;;
14768;SDS011;7476;49.404;11.152;2022-07-22T07:23:18;7.25;;;6.60;;
14768;SDS011;7476;49.404;11.152;2022-07-22T07:25:45;7.30;;;6.60;;
14768;SDS011;7476;49.404;11.152;2022-07-22T07:28:11;7.88;;;7.07;;
14768;SDS011;7476;49.404;11.152;2022-07-22T07:30:38;7.82;;;7.13;;
14768;SDS011;7476;49.404;11.152;2022-07-22T07:33:05;8.60;;;7.13;;
14768;SDS011;7476;49.404;11.152;2022-07-22T07:35:31;7.78;;;7.03;;
14768;SDS011;7476;49.404;11.152;2022-07-22T07:37:59;7.47;;;6.68;;
14768;SDS011;7476;49.404;11.152;2022-07-22T07:40:26;9.73;;;6.78;;
14768;SDS011;7476;49.404;11.152;2022-07-22T07:42:53;8.15;;;6.68;;
14768;SDS011;7476;49.404;11.152;2022-07-22T07:45:19;7.38;;;6.68;;
14768;SDS011;7476;49.404;11.152;2022-07-22T07:47:46;8.98;;;6.88;;
14768;SDS011;7476;49.404;11.152;2022-07-22T07:50:13;8.35;;;6.63;;
14768;SDS011;7476;49.404;11.152;2022-07-22T07:52:40;7.85;;;7.05;;
14768;SDS011;7476;49.404;11.152;2022-07-22T07:55:10;8.23;;;7.50;;
14768;SDS011;7476;49.404;11.152;2022-07-22T07:57:38;8.93;;;6.97;;
14768;SDS011;7476;49.404;11.152;2022-07-22T08:00:06;8.43;;;7.60;;
14768;SDS011;7476;49.404;11.152;2022-07-22T08:02:35;7.95;;;7.22;;
14768;SDS011;7476;49.404;11.152;2022-07-22T08:05:02;9.52;;;7.03;;
14768;SDS011;7476;49.404;11.152;2022-07-22T08:07:29;8.93;;;7.90;;
14768;SDS011;7476;49.404;11.152;2022-07-22T08:09:55;7.65;;;7.00;;
14768;SDS011;7476;49.404;11.152;2022-07-22T08:12:23;7.53;;;6.82;;
14768;SDS011;7476;49.404;11.152;2022-07-22T08:14:50;8.00;;;7.10;;
14768;SDS011;7476;49.404;11.152;2022-07-22T08:17:17;8.10;;;7.30;;
14768;SDS011;7476;49.404;11.152;2022-07-22T08:19:43;8.93;;;8.10;;
14768;SDS011;7476;49.404;11.152;2022-07-22T08:22:10;7.35;;;6.65;;
14768;SDS011;7476;49.404;11.152;2022-07-22T08:24:37;7.20;;;6.60;;
14768;SDS011;7476;49.404;11.152;2022-07-22T08:27:03;7.90;;;7.13;;
14768;SDS011;7476;49.404;11.152;2022-07-22T08:29:32;7.20;;;6.60;;
14768;SDS011;7476;49.404;11.152;2022-07-22T08:31:58;8.13;;;6.82;;
14768;SDS011;7476;49.404;11.152;2022-07-22T08:34:25;7.45;;;6.75;;
14768;SDS011;7476;49.404;11.152;2022-07-22T08:36:52;11.45;;;7.38;;
14768;SDS011;7476;49.404;11.152;2022-07-22T08:39:18;8.77;;;6.90;;
14768;SDS011;7476;49.404;11.152;2022-07-22T08:41:45;7.47;;;6.70;;
14768;SDS011;7476;49.404;11.152;2022-07-22T08:44:12;7.80;;;7.03;;
14768;SDS011;7476;49.404;11.152;2022-07-22T08:46:40;10.43;;;7.00;;
14768;SDS011;7476;49.404;11.152;2022-07-22T08:49:12;7.45;;;6.78;;
14768;SDS011;7476;49.404;11.152;2022-07-22T08:51:39;7.07;;;6.47;;
14768;SDS011;7476;49.404;11.152;2022-07-22T08:54:06;8.02;;;7.30;;
14768;SDS011;7476;49.404;11.152;2022-07-22T08:56:32;7.65;;;6.95;;
14768;SDS011;7476;49.404;11.152;2022-07-22T08:58:59;7.70;;;7.00;;
14768;SDS011;7476;49.404;11.152;2022-07-22T09:01:26;7.35;;;6.60;;
14768;SDS011;7476;49.404;11.152;2022-07-22T09:03:54;10.25;;;6.63;;
14768;SDS011;7476;49.404;11.152;2022-07-22T09:06:23;8.30;;;7.05;;
14768;SDS011;7476;49.404;11.152;2022-07-22T09:08:52;7.15;;;6.45;;
14768;SDS011;7476;49.404;11.152;2022-07-22T09:11:20;9.95;;;7.13;;
14768;SDS011;7476;49.404;11.152;2022-07-22T09:13:49;7.68;;;6.63;;
14768;SDS011;7476;49.404;11.152;2022-07-22T09:16:16;7.35;;;6.07;;
14768;SDS011;7476;49.404;11.152;2022-07-22T09:19:04;6.47;;;5.88;;
14768;SDS011;7476;49.404;11.152;2022-07-22T09:21:31;7.00;;;6.03;;
14768;SDS011;7476;49.404;11.152;2022-07-22T09:24:01;6.50;;;5.90;;
14768;SDS011;7476;49.404;11.152;2022-07-22T09:26:29;7.28;;;5.93;;
14768;SDS011;7476;49.404;11.152;2022-07-22T09:28:57;6.63;;;6.03;;
14768;SDS011;7476;49.404;11.152;2022-07-22T09:31:24;7.53;;;6.60;;
14768;SDS011;7476;49.404;11.152;2022-07-22T09:33:51;7.47;;;6.78;;
14768;SDS011;7476;49.404;11.152;2022-07-22T09:36:21;6.88;;;6.28;;
14768;SDS011;7476;49.404;11.152;2022-07-22T09:38:48;8.23;;;6.45;;
14768;SDS011;7476;49.404;11.152;2022-07-22T09:41:15;7.53;;;6.72;;
14768;SDS011;7476;49.404;11.152;2022-07-22T09:43:42;8.20;;;7.40;;
14768;SDS011;7476;49.404;11.152;2022-07-22T09:46:09;11.27;;;6.95;;
14768;SDS011;7476;49.404;11.152;2022-07-22T09:48:36;8.23;;;7.43;;
14768;SDS011;7476;49.404;11.152;2022-07-22T09:51:04;7.50;;;6.65;;
14768;SDS011;7476;49.404;11.152;2022-07-22T09:53:32;7.32;;;6.55;;
14768;SDS011;7476;49.404;11.152;2022-07-22T09:56:00;7.57;;;6.80;;
14768;SDS011;7476;49.404;11.152;2022-07-22T09:58:28;6.97;;;6.28;;
14768;SDS011;7476;49.404;11.152;2022-07-22T10:00:57;8.98;;;6.63;;
14768;SDS011;7476;49.404;11.152;2022-07-22T10:03:26;8.38;;;6.72;;
14768;SDS011;7476;49.404;11.152;2022-07-22T10:05:54;7.82;;;7.03;;
14768;SDS011;7476;49.404;11.152;2022-07-22T10:08:22;7.35;;;6.65;;
14768;SDS011;7476;49.404;11.152;2022-07-22T10:10:52;7.20;;;6.50;;
14768;SDS011;7476;49.404;11.152;2022-07-22T10:13:19;7.68;;;6.97;;
14768;SDS011;7476;49.404;11.152;2022-07-22T10:15:46;7.45;;;6.55;;
14768;SDS011;7476;49.404;11.152;2022-07-22T10:18:14;7.57;;;6.47;;
14768;SDS011;7476;49.404;11.152;2022-07-22T10:20:43;6.97;;;6.38;;
14768;SDS011;7476;49.404;11.152;2022-07-22T10:23:11;6.90;;;6.03;;
14768;SDS011;7476;49.404;11.152;2022-07-22T10:25:48;7.75;;;7.00;;
14768;SDS011;7476;49.404;11.152;2022-07-22T10:28:21;8.27;;;7.05;;
14768;SDS011;7476;49.404;11.152;2022-07-22T10:30:49;7.50;;;6.80;;
14768;SDS011;7476;49.404;11.152;2022-07-22T10:33:17;7.63;;;6.38;;
14768;SDS011;7476;49.404;11.152;2022-07-22T10:35:52;7.15;;;6.45;;
14768;SDS011;7476;49.404;11.152;2022-07-22T10:38:22;7.10;;;6.40;;
14768;SDS011;7476;49.404;11.152;2022-07-22T10:40:50;7.55;;;6.85;;
14768;SDS011;7476;49.404;11.152;2022-07-22T10:43:21;6.80;;;6.00;;
14768;SDS011;7476;49.404;11.152;2022-07-22T10:45:50;7.25;;;6.50;;
14768;SDS011;7476;49.404;11.152;2022-07-22T10:48:20;7.72;;;6.40;;
14768;SDS011;7476;49.404;11.152;2022-07-22T10:50:50;7.72;;;6.60;;
14768;SDS011;7476;49.404;11.152;2022-07-22T10:53:20;6.72;;;6.15;;
14768;SDS011;7476;49.404;11.152;2022-07-22T10:55:58;8.07;;;6.20;;
14768;SDS011;7476;49.404;11.152;2022-07-22T10:58:47;6.45;;;5.85;;
14768;SDS011;7476;49.404;11.152;2022-07-22T11:01:19;6.80;;;6.18;;
14768;SDS011;7476;49.404;11.152;2022-07-22T11:03:47;6.28;;;5.78;;
14768;SDS011;7476;49.404;11.152;2022-07-22T11:06:25;6.85;;;6.22;;
14768;SDS011;7476;49.404;11.152;2022-07-22T11:08:55;6.85;;;6.25;;
14768;SDS011;7476;49.404;11.152;2022-07-22T11:11:32;7.10;;;6.22;;
14768;SDS011;7476;49.404;11.152;2022-07-22T11:14:08;7.88;;;6.22;;
14768;SDS011;7476;49.404;11.152;2022-07-22T11:16:41;7.30;;;6.60;;
14768;SDS011;7476;49.404;11.152;2022-07-22T11:19:08;9.15;;;6.50;;
14768;SDS011;7476;49.404;11.152;2022-07-22T11:21:35;7.75;;;6.47;;
14768;SDS011;7476;49.404;11.152;2022-07-22T11:24:03;7.65;;;6.95;;
14768;SDS011;7476;49.404;11.152;2022-07-22T11:26:33;7.32;;;6.63;;
14768;SDS011;7476;49.404;11.152;2022-07-22T11:29:08;8.57;;;6.47;;
14768;SDS011;7476;49.404;11.152;2022-07-22T11:31:35;7.20;;;6.50;;
14768;SDS011;7476;49.404;11.152;2022-07-22T11:34:07;7.00;;;6.38;;
14768;SDS011;7476;49.404;11.152;2022-07-22T11:36:36;7.07;;;6.38;;
14768;SDS011;7476;49.404;11.152;2022-07-22T11:39:05;7.20;;;6.45;;
14768;SDS011;7476;49.404;11.152;2022-07-22T11:41:34;7.15;;;6.55;;
14768;SDS011;7476;49.404;11.152;2022-07-22T11:44:01;7.07;;;6.45;;
14768;SDS011;7476;49.404;11.152;2022-07-22T11:46:35;7.50;;;6.22;;
14768;SDS011;7476;49.404;11.152;2022-07-22T11:49:03;7.22;;;6.32;;
14768;SDS011;7476;49.404;11.152;2022-07-22T11:51:30;8.10;;;6.80;;
14768;SDS011;7476;49.404;11.152;2022-07-22T11:53:58;8.13;;;6.32;;
14768;SDS011;7476;49.404;11.152;2022-07-22T11:56:25;8.20;;;6.45;;
14768;SDS011;7476;49.404;11.152;2022-07-22T11:58:53;7.35;;;6.65;;
14768;SDS011;7476;49.404;11.152;2022-07-22T12:01:21;7.38;;;6.72;;
14768;SDS011;7476;49.404;11.152;2022-07-22T12:03:51;6.85;;;6.25;;
14768;SDS011;7476;49.404;11.152;2022-07-22T12:06:20;6.38;;;5.88;;
14768;SDS011;7476;49.404;11.152;2022-07-22T12:08:48;6.90;;;6.22;;
14768;SDS011;7476;49.404;11.152;2022-07-22T12:11:18;6.88;;;5.72;;
14768;SDS011;7476;49.404;11.152;2022-07-22T12:13:46;6.50;;;5.95;;
14768;SDS011;7476;49.404;11.152;2022-07-22T12:19:02;7.10;;;6.13;;
14768;SDS011;7476;49.404;11.152;2022-07-22T12:21:30;6.40;;;5.78;;
14768;SDS011;7476;49.404;11.152;2022-07-22T12:24:00;5.75;;;5.28;;
14768;SDS011;7476;49.404;11.152;2022-07-22T12:26:42;6.45;;;5.95;;
14768;SDS011;7476;49.404;11.152;2022-07-22T12:29:17;6.70;;;6.10;;
14768;SDS011;7476;49.404;11.152;2022-07-22T12:31:46;6.15;;;5.60;;
14768;SDS011;7476;49.404;11.152;2022-07-22T12:34:15;9.02;;;5.70;;
14768;SDS011;7476;49.404;11.152;2022-07-22T12:36:43;6.85;;;5.40;;
14768;SDS011;7476;49.404;11.152;2022-07-22T12:39:12;5.68;;;5.28;;
14768;SDS011;7476;49.404;11.152;2022-07-22T12:41:44;6.30;;;5.70;;
14768;SDS011;7476;49.404;11.152;2022-07-22T12:44:14;6.13;;;5.60;;
14768;SDS011;7476;49.404;11.152;2022-07-22T12:46:46;6.22;;;5.72;;
14768;SDS011;7476;49.404;11.152;2022-07-22T12:49:16;6.97;;;6.07;;
14768;SDS011;7476;49.404;11.152;2022-07-22T12:54:35;6.20;;;5.70;;
14768;SDS011;7476;49.404;11.152;2022-07-22T12:57:02;6.30;;;5.40;;
14768;SDS011;7476;49.404;11.152;2022-07-22T12:59:30;6.30;;;5.70;;
14768;SDS011;7476;49.404;11.152;2022-07-22T13:01:57;6.55;;;5.57;;
14768;SDS011;7476;49.404;11.152;2022-07-22T13:04:25;6.13;;;5.53;;
14768;SDS011;7476;49.404;11.152;2022-07-22T13:06:51;6.18;;;5.55;;
14768;SDS011;7476;49.404;11.152;2022-07-22T13:09:18;5.97;;;5.38;;
14768;SDS011;7476;49.404;11.152;2022-07-22T13:11:45;6.57;;;6.03;;
14768;SDS011;7476;49.404;11.152;2022-07-22T13:14:12;6.15;;;5.65;;
14768;SDS011;7476;49.404;11.152;2022-07-22T13:16:40;5.68;;;5.20;;
14768;SDS011;7476;49.404;11.152;2022-07-22T13:19:07;5.70;;;5.20;;
14768;SDS011;7476;49.404;11.152;2022-07-22T13:21:34;6.10;;;5.47;;
14768;SDS011;7476;49.404;11.152;2022-07-22T13:24:01;6.15;;;5.53;;
14768;SDS011;7476;49.404;11.152;2022-07-22T13:26:28;8.10;;;7.07;;
14768;SDS011;7476;49.404;11.152;2022-07-22T13:28:55;6.38;;;5.78;;
14768;SDS011;7476;49.404;11.152;2022-07-22T13:31:21;6.30;;;5.70;;
14768;SDS011;7476;49.404;11.152;2022-07-22T13:33:48;6.18;;;5.28;;
14768;SDS011;7476;49.404;11.152;2022-07-22T13:36:14;6.10;;;5.60;;
14768;SDS011;7476;49.404;11.152;2022-07-22T13:38:42;5.97;;;5.45;;
14768;SDS011;7476;49.404;11.152;2022-07-22T13:41:09;5.93;;;5.47;;
14768;SDS011;7476;49.404;11.152;2022-07-22T13:43:42;7.03;;;5.78;;
14768;SDS011;7476;49.404;11.152;2022-07-22T13:46:09;7.88;;;5.90;;
14768;SDS011;7476;49.404;11.152;2022-07-22T13:48:36;6.65;;;6.00;;
14768;SDS011;7476;49.404;11.152;2022-07-22T13:51:03;6.30;;;5.80;;
14768;SDS011;7476;49.404;11.152;2022-07-22T13:53:31;6.05;;;5.63;;
14768;SDS011;7476;49.404;11.152;2022-07-22T13:55:59;6.35;;;5.82;;
14768;SDS011;7476;49.404;11.152;2022-07-22T13:58:25;5.95;;;5.45;;
14768;SDS011;7476;49.404;11.152;2022-07-22T14:00:53;6.35;;;5.70;;
14768;SDS011;7476;49.404;11.152;2022-07-22T14:03:19;6.40;;;5.45;;
14768;SDS011;7476;49.404;11.152;2022-07-22T14:05:46;5.72;;;5.22;;
14768;SDS011;7476;49.404;11.152;2022-07-22T14:08:13;8.18;;;5.63;;
14768;SDS011;7476;49.404;11.152;2022-07-22T14:10:40;6.00;;;5.40;;
14768;SDS011;7476;49.404;11.152;2022-07-22T14:13:07;7.47;;;5.35;;
14768;SDS011;7476;49.404;11.152;2022-07-22T14:15:34;6.32;;;5.28;;
14768;SDS011;7476;49.404;11.152;2022-07-22T14:18:01;5.60;;;5.10;;
14768;SDS011;7476;49.404;11.152;2022-07-22T14:20:30;6.13;;;5.45;;
14768;SDS011;7476;49.404;11.152;2022-07-22T14:22:57;7.50;;;6.80;;
14768;SDS011;7476;49.404;11.152;2022-07-22T14:25:23;5.93;;;5.43;;
14768;SDS011;7476;49.404;11.152;2022-07-22T14:27:50;6.00;;;5.50;;
14768;SDS011;7476;49.404;11.152;2022-07-22T14:30:18;5.65;;;5.15;;
14768;SDS011;7476;49.404;11.152;2022-07-22T14:32:44;5.82;;;5.32;;
14768;SDS011;7476;49.404;11.152;2022-07-22T14:35:11;7.03;;;6.43;;
14768;SDS011;7476;49.404;11.152;2022-07-22T14:37:38;7.07;;;6.38;;
14768;SDS011;7476;49.404;11.152;2022-07-22T14:40:05;6.43;;;5.93;;
14768;SDS011;7476;49.404;11.152;2022-07-22T14:42:32;6.60;;;6.00;;
14768;SDS011;7476;49.404;11.152;2022-07-22T14:44:59;6.50;;;5.65;;
14768;SDS011;7476;49.404;11.152;2022-07-22T14:47:27;8.05;;;6.38;;
14768;SDS011;7476;49.404;11.152;2022-07-22T14:49:53;8.30;;;5.95;;
14768;SDS011;7476;49.404;11.152;2022-07-22T14:52:20;10.80;;;9.85;;